Time;durP1;ratioP1;P1;durP2;ratioP2;P2;SDS_P1;SDS_P2;PMS_P1;PMS_P2;Temp;Humidity;BMP_temperature;BMP_pressure;BME280_temperature;BME280_humidity;BME280_pressure;Samples;Min_cycle;Max_cycle;Signal;HPM_P1;HPM_P2
2022/01/27 00:04:13;;;;;;;31.75;26.92;;;;;;;2.76;100.00;102922.13;5186197;28;20034;-58
2022/01/27 00:06:44;;;;;;;28.42;25.70;;;;;;;2.84;100.00;102944.38;5168375;28;20398;-55
2022/01/27 00:11:47;;;;;;;29.55;26.15;;;;;;;2.74;100.00;102914.25;5481823;23;20038;-58
2022/01/27 00:14:20;;;;;;;27.13;24.60;;;;;;;2.88;100.00;102936.91;5169193;28;20022;-58
2022/01/27 00:16:58;;;;;;;31.05;27.85;;;;;;;2.86;100.00;102926.38;5170525;28;20028;-56
2022/01/27 00:19:29;;;;;;;28.92;26.27;;;;;;;2.89;100.00;102917.19;5186015;28;20022;-60
2022/01/27 00:21:59;;;;;;;32.40;26.00;;;;;;;2.89;100.00;102911.88;5168390;28;20045;-55
2022/01/27 00:24:31;;;;;;;28.88;25.35;;;;;;;2.89;100.00;102912.72;5168391;28;20036;-56
2022/01/27 00:27:46;;;;;;;32.85;26.33;;;;;;;2.89;100.00;102907.38;5168576;28;20026;-57
2022/01/27 00:30:16;;;;;;;34.53;26.33;;;;;;;2.72;100.00;102879.75;5168735;28;20022;-55
2022/01/27 00:32:47;;;;;;;29.17;24.63;;;;;;;2.91;100.00;102904.53;5168608;28;20030;-56
2022/01/27 00:38:44;;;;;;;27.80;25.27;;;;;;;2.94;100.00;102889.06;5186300;28;20095;-57
2022/01/27 00:41:19;;;;;;;30.73;27.75;;;;;;;2.95;100.00;102885.41;5168422;28;20496;-55
2022/01/27 00:43:50;;;;;;;29.25;26.48;;;;;;;2.95;100.00;102884.56;5168021;28;20499;-54
2022/01/27 00:46:21;;;;;;;30.15;27.05;;;;;;;2.95;100.00;102871.22;5185743;28;20524;-55
2022/01/27 00:48:51;;;;;;;27.90;25.20;;;;;;;2.76;100.00;102831.41;5168286;28;20022;-55
2022/01/27 00:51:50;;;;;;;28.48;25.73;;;;;;;2.96;100.00;102867.56;5168331;28;20026;-60
2022/01/27 00:54:24;;;;;;;28.05;25.27;;;;;;;2.97;100.00;102870.06;5168929;28;20112;-57
2022/01/27 00:57:24;;;;;;;26.80;24.20;;;;;;;2.98;100.00;102878.91;5169773;28;20121;-56
2022/01/27 00:59:55;;;;;;;29.35;26.17;;;;;;;2.99;100.00;102881.44;5186311;28;20061;-57
2022/01/27 01:05:34;;;;;;;24.85;22.60;;;;;;;2.99;100.00;102870.75;5186885;28;20498;-58
2022/01/27 01:16:11;;;;;;;27.98;25.20;;;;;;;3.05;100.00;102856.78;5187220;28;20560;-59
2022/01/27 01:19:34;;;;;;;24.80;22.23;;;;;;;2.98;100.00;102841.56;5169826;28;20092;-58
2022/01/27 01:33:04;;;;;;;27.42;24.80;;;;;;;3.07;100.00;102815.75;5185990;28;20494;-58
2022/01/27 01:36:01;;;;;;;27.70;24.48;;;;;;;3.07;100.00;102808.59;5168515;28;20033;-59
2022/01/27 01:38:35;;;;;;;24.95;22.95;;;;;;;3.08;100.00;102806.75;5186587;28;20036;-59
2022/01/27 01:41:06;;;;;;;24.92;22.25;;;;;;;3.07;100.00;102811.25;5169038;28;20410;-58
2022/01/27 01:43:36;;;;;;;28.83;26.05;;;;;;;3.05;100.00;102819.41;5168859;28;20033;-59
2022/01/27 01:46:07;;;;;;;26.85;24.42;;;;;;;3.06;100.00;102809.59;5185250;28;20033;-58
2022/01/27 01:48:37;;;;;;;28.75;25.80;;;;;;;3.03;100.00;102807.22;5169081;28;20386;-58
2022/01/27 01:51:08;;;;;;;28.30;23.15;;;;;;;3.02;100.00;102806.41;5171066;28;20030;-59
2022/01/27 01:53:38;;;;;;;33.80;26.95;;;;;;;3.02;100.00;102817.06;5173056;28;20533;-59
2022/01/27 01:56:09;;;;;;;29.05;25.95;;;;;;;3.03;100.00;102801.88;5173325;28;20033;-58
2022/01/27 01:58:39;;;;;;;27.77;25.00;;;;;;;3.05;100.00;102791.91;5173183;28;20030;-58
2022/01/27 02:01:19;;;;;;;28.88;24.95;;;;;;;3.05;100.00;102798.06;5173065;28;20120;-60
2022/01/27 02:03:51;;;;;;;28.88;26.10;;;;;;;3.05;100.00;102798.06;5172511;28;20095;-57
2022/01/27 02:06:34;;;;;;;27.33;24.52;;;;;;;3.00;100.00;102796.88;5172826;28;20057;-57
2022/01/27 02:09:14;;;;;;;29.20;26.42;;;;;;;3.05;100.00;102805.25;5173047;28;20029;-58
2022/01/27 02:20:13;;;;;;;25.17;22.65;;;;;;;3.06;100.00;102785.56;5190526;28;19971;-57
2022/01/27 02:22:43;;;;;;;28.80;25.75;;;;;;;3.03;100.00;102770.69;5172724;28;20482;-57
2022/01/27 02:25:14;;;;;;;29.77;25.83;;;;;;;3.00;100.00;102772.84;5171994;28;20099;-57
2022/01/27 02:27:45;;;;;;;31.23;26.83;;;;;;;3.01;100.00;102761.19;5172046;28;20030;-57
2022/01/27 02:30:15;;;;;;;34.28;26.80;;;;;;;2.90;100.00;102745.44;5187001;28;20029;-55
2022/01/27 02:32:46;;;;;;;30.67;24.85;;;;;;;2.99;100.00;102760.50;5170656;28;20028;-55
2022/01/27 02:35:16;;;;;;;29.08;26.17;;;;;;;3.05;100.00;102763.38;5170212;28;20478;-55
2022/01/27 02:37:47;;;;;;;29.45;25.00;;;;;;;3.04;100.00;102761.69;5170567;28;20099;-58
2022/01/27 02:40:34;;;;;;;26.73;23.95;;;;;;;3.09;100.00;102757.72;5170494;28;20030;-56
2022/01/27 02:43:05;;;;;;;31.88;23.83;;;;;;;3.06;100.00;102742.84;5184753;23;20386;-62
2022/01/27 02:45:44;;;;;;;30.92;27.75;;;;;;;3.00;100.00;102739.00;5170640;28;20452;-62
2022/01/27 02:48:15;;;;;;;28.08;23.85;;;;;;;2.99;100.00;102726.63;5170893;28;20029;-61
2022/01/27 02:50:46;;;;;;;29.05;25.02;;;;;;;2.95;100.00;102730.63;5170892;28;20405;-60
2022/01/27 02:53:16;;;;;;;26.60;24.23;;;;;;;2.79;100.00;102703.03;5170712;28;20462;-61
2022/01/27 02:55:46;;;;;;;35.65;24.73;;;;;;;2.86;100.00;102712.91;5170486;28;20030;-62
2022/01/27 02:58:17;;;;;;;29.48;26.58;;;;;;;2.86;100.00;102720.09;5170667;28;20117;-62
2022/01/27 03:00:47;;;;;;;29.25;25.25;;;;;;;2.90;100.00;102718.75;5170245;28;20049;-62
2022/01/27 03:03:18;;;;;;;28.67;25.95;;;;;;;2.96;100.00;102731.47;5170418;28;20028;-61
2022/01/27 03:05:48;;;;;;;30.35;25.67;;;;;;;3.01;100.00;102718.47;5170148;28;20425;-61
2022/01/27 03:08:19;;;;;;;26.98;24.08;;;;;;;3.07;100.00;102725.84;5170404;28;20057;-62
2022/01/27 03:10:57;;;;;;;25.10;22.45;;;;;;;3.15;100.00;102720.53;5170135;28;20018;-63
2022/01/27 03:13:30;;;;;;;25.13;22.92;;;;;;;3.08;100.00;102702.66;5170151;28;20026;-62
2022/01/27 03:16:00;;;;;;;25.27;22.52;;;;;;;2.88;100.00;102656.72;5170287;28;20112;-62
2022/01/27 03:18:31;;;;;;;22.75;20.58;;;;;;;3.22;100.00;102702.84;5170224;28;20156;-61
2022/01/27 03:21:03;;;;;;;26.70;23.95;;;;;;;3.31;100.00;102703.72;5170198;28;20505;-59
2022/01/27 03:23:33;;;;;;;25.67;23.13;;;;;;;3.35;100.00;102699.75;5169784;28;20033;-60
2022/01/27 03:26:04;;;;;;;25.73;23.20;;;;;;;3.36;100.00;102707.59;5170331;28;20478;-60
2022/01/27 03:28:34;;;;;;;26.27;23.83;;;;;;;3.43;100.00;102701.59;5170370;28;20029;-61
2022/01/27 03:31:05;;;;;;;28.73;23.27;;;;;;;3.45;100.00;102694.25;5170098;28;20482;-61
2022/01/27 03:33:37;;;;;;;26.45;23.67;;;;;;;3.47;100.00;102695.75;5187442;28;20029;-60
2022/01/27 03:36:08;;;;;;;25.10;22.55;;;;;;;3.46;100.00;102685.25;5170044;28;20022;-60
2022/01/27 03:38:39;;;;;;;24.33;21.88;;;;;;;3.46;100.00;102680.75;5169925;28;20028;-60
2022/01/27 03:41:11;;;;;;;24.02;21.65;;;;;;;3.34;100.00;102666.84;5187505;28;20099;-61
2022/01/27 03:43:41;;;;;;;24.17;21.75;;;;;;;3.30;100.00;102665.50;5169485;28;20087;-61
2022/01/27 03:46:12;;;;;;;28.38;21.88;;;;;;;3.21;100.00;102671.81;5169918;28;20030;-61
2022/01/27 03:48:42;;;;;;;22.92;20.65;;;;;;;2.82;100.00;102614.69;5169252;28;20029;-60
2022/01/27 03:51:13;;;;;;;25.92;22.73;;;;;;;3.13;100.00;102661.16;5169295;28;20041;-63
2022/01/27 03:53:43;;;;;;;30.85;24.25;;;;;;;3.15;100.00;102671.66;5169398;28;20087;-61
2022/01/27 03:56:14;;;;;;;21.35;18.42;;;;;;;3.10;100.00;102664.13;5169635;28;20106;-62
2022/01/27 03:58:44;;;;;;;25.73;23.42;;;;;;;2.99;100.00;102669.75;5169476;28;20475;-61
2022/01/27 04:01:16;;;;;;;24.95;22.33;;;;;;;2.88;100.00;102673.59;5169271;28;20022;-61
2022/01/27 04:03:47;;;;;;;26.08;23.70;;;;;;;2.88;100.00;102665.56;5168829;28;20113;-61
2022/01/27 04:06:21;;;;;;;26.42;23.25;;;;;;;2.89;100.00;102682.38;5169401;28;20542;-61
2022/01/27 04:08:52;;;;;;;25.80;21.90;;;;;;;2.94;100.00;102683.59;5169301;28;20045;-61
2022/01/27 04:11:22;;;;;;;23.20;21.17;;;;;;;2.88;100.00;102660.25;5168863;28;20044;-60
2022/01/27 04:13:52;;;;;;;26.77;23.80;;;;;;;3.06;100.00;102665.47;5168392;28;20025;-60
2022/01/27 04:16:23;;;;;;;27.23;24.30;;;;;;;3.12;100.00;102666.66;5169248;28;20410;-61
2022/01/27 04:18:53;;;;;;;26.60;22.98;;;;;;;3.16;100.00;102663.50;5169137;28;20030;-61
2022/01/27 04:21:24;;;;;;;26.55;23.80;;;;;;;3.14;100.00;102660.16;5186563;28;20022;-61
2022/01/27 04:23:55;;;;;;;27.60;24.60;;;;;;;3.19;100.00;102664.97;5186273;28;20389;-61
2022/01/27 04:26:34;;;;;;;31.10;25.10;;;;;;;3.01;100.00;102631.25;5168994;28;20553;-63
2022/01/27 04:29:05;;;;;;;28.67;25.30;;;;;;;3.20;100.00;102654.13;5169205;28;20100;-61
2022/01/27 04:31:38;;;;;;;26.98;24.02;;;;;;;3.00;100.00;102618.06;5168707;28;20026;-61
2022/01/27 04:34:11;;;;;;;28.33;23.70;;;;;;;3.09;100.00;102630.44;5168397;28;20021;-59
2022/01/27 04:36:43;;;;;;;36.88;26.63;;;;;;;3.15;100.00;102643.13;5168773;28;20113;-59
2022/01/27 04:39:56;;;;;;;30.83;23.88;;;;;;;3.19;100.00;102646.28;5168694;28;20525;-61
2022/01/27 04:42:27;;;;;;;25.60;23.20;;;;;;;3.08;100.00;102635.94;5183744;28;20624;-61
2022/01/27 04:45:02;;;;;;;29.88;22.80;;;;;;;3.01;100.00;102622.41;5168193;28;20084;-60
2022/01/27 04:47:39;;;;;;;29.30;23.42;;;;;;;2.90;100.00;102620.03;5168232;28;20454;-60
2022/01/27 04:50:09;;;;;;;26.70;24.10;;;;;;;2.79;100.00;102631.84;5168636;28;20034;-60
2022/01/27 04:52:44;;;;;;;30.23;26.98;;;;;;;2.71;100.00;102627.31;5168280;28;20026;-64
2022/01/27 04:55:17;;;;;;;27.27;23.90;;;;;;;2.62;100.00;102617.59;5167751;28;20030;-61
2022/01/27 04:57:55;;;;;;;27.10;24.23;;;;;;;2.54;100.00;102614.91;5168161;28;20033;-63
2022/01/27 05:00:25;;;;;;;27.08;24.38;;;;;;;2.52;100.00;102619.56;5168259;28;20038;-61
2022/01/27 05:02:59;;;;;;;28.45;25.73;;;;;;;2.50;100.00;102640.22;5167771;28;20030;-62
2022/01/27 05:05:36;;;;;;;30.15;26.00;;;;;;;2.35;100.00;102609.81;5167947;28;20025;-61
2022/01/27 05:08:10;;;;;;;28.92;25.85;;;;;;;2.37;100.00;102619.31;5168414;28;20026;-61
2022/01/27 05:10:42;;;;;;;27.40;24.67;;;;;;;2.37;100.00;102608.66;5167900;28;20036;-60
2022/01/27 05:13:17;;;;;;;29.30;25.98;;;;;;;2.37;100.00;102614.00;5168036;28;20500;-61
2022/01/27 05:15:48;;;;;;;29.15;26.50;;;;;;;2.33;100.00;102606.47;5167966;28;20429;-61
2022/01/27 05:18:20;;;;;;;33.97;28.05;;;;;;;2.36;100.00;102606.16;5167992;28;20033;-60
2022/01/27 05:20:50;;;;;;;29.30;26.25;;;;;;;2.39;100.00;102595.16;5168320;28;20474;-61
2022/01/27 05:23:21;;;;;;;32.05;28.73;;;;;;;2.41;100.00;102606.50;5167884;28;20022;-62
2022/01/27 05:25:51;;;;;;;32.60;29.30;;;;;;;2.37;100.00;102598.00;5166929;28;20050;-61
2022/01/27 05:28:22;;;;;;;32.30;26.15;;;;;;;2.31;100.00;102603.16;5167767;28;20017;-61
2022/01/27 05:30:52;;;;;;;37.33;30.67;;;;;;;2.36;100.00;102611.47;5167556;28;20033;-61
2022/01/27 05:33:23;;;;;;;31.35;27.80;;;;;;;2.30;100.00;102602.31;5167517;28;20033;-62
2022/01/27 05:35:53;;;;;;;32.80;29.48;;;;;;;2.32;100.00;102605.63;5167669;28;20068;-62
2022/01/27 05:38:24;;;;;;;33.75;29.38;;;;;;;2.45;100.00;102615.88;5167608;28;20471;-62
2022/01/27 05:40:54;;;;;;;30.95;27.65;;;;;;;2.52;100.00;102614.25;5167460;28;20430;-62
2022/01/27 05:43:25;;;;;;;39.13;30.30;;;;;;;2.60;100.00;102606.25;5167305;28;20026;-60
2022/01/27 05:45:55;;;;;;;36.00;31.50;;;;;;;2.72;100.00;102590.81;5167467;28;20029;-60
2022/01/27 05:48:26;;;;;;;34.17;30.52;;;;;;;2.82;100.00;102580.84;5185326;28;20028;-61
2022/01/27 05:50:57;;;;;;;30.52;27.42;;;;;;;2.91;100.00;102571.00;5167401;28;20030;-61
2022/01/27 05:53:30;;;;;;;34.85;28.33;;;;;;;3.03;100.00;102580.38;5167565;28;20053;-61
2022/01/27 05:56:00;;;;;;;43.20;32.33;;;;;;;3.11;100.00;102568.88;5167095;28;20478;-61
2022/01/27 05:58:31;;;;;;;32.53;24.20;;;;;;;3.01;100.00;102529.00;5165920;28;20030;-61
2022/01/27 06:01:02;;;;;;;38.25;30.00;;;;;;;3.23;100.00;102565.72;5166229;28;20030;-61
2022/01/27 06:03:32;;;;;;;33.50;29.42;;;;;;;3.11;100.00;102521.69;5166094;28;20034;-60
2022/01/27 06:06:03;;;;;;;35.40;30.70;;;;;;;3.29;100.00;102573.06;5166508;28;20406;-61
2022/01/27 06:08:34;;;;;;;41.28;29.10;;;;;;;3.21;100.00;102551.69;5166253;28;20029;-61
2022/01/27 06:11:05;;;;;;;31.05;27.73;;;;;;;3.34;100.00;102560.06;5166424;28;20065;-60
2022/01/27 06:13:36;;;;;;;38.28;30.73;;;;;;;3.37;100.00;102559.72;5182978;28;20084;-60
2022/01/27 06:16:10;;;;;;;37.97;29.33;;;;;;;3.44;100.00;102562.56;5182155;28;20026;-61
2022/01/27 06:18:41;;;;;;;34.78;29.90;;;;;;;3.49;100.00;102559.38;5166465;28;20034;-60
2022/01/27 06:21:13;;;;;;;39.85;29.15;;;;;;;3.51;100.00;102560.88;5166375;28;20026;-60
2022/01/27 06:23:43;;;;;;;36.45;32.47;;;;;;;3.51;100.00;102560.88;5166187;28;20056;-61
2022/01/27 06:26:14;;;;;;;39.70;29.40;;;;;;;3.59;100.00;102568.88;5183990;28;20058;-61
2022/01/27 06:28:44;;;;;;;31.40;28.23;;;;;;;3.58;100.00;102556.53;5166464;28;20037;-61
2022/01/27 06:31:15;;;;;;;31.15;28.13;;;;;;;3.66;100.00;102571.72;5166266;28;20101;-60
2022/01/27 06:33:45;;;;;;;28.90;25.58;;;;;;;3.69;100.00;102563.38;5166196;28;20030;-61
2022/01/27 06:36:16;;;;;;;31.02;26.80;;;;;;;3.71;100.00;102548.00;5166545;28;20021;-59
2022/01/27 06:38:46;;;;;;;31.13;27.23;;;;;;;3.70;100.00;102544.50;5169358;28;20156;-61
2022/01/27 06:41:17;;;;;;;32.92;29.45;;;;;;;3.75;100.00;102556.53;5169618;28;20117;-61
2022/01/27 06:43:47;;;;;;;34.63;28.40;;;;;;;3.76;100.00;102547.47;5169527;28;20417;-60
2022/01/27 06:46:18;;;;;;;29.98;26.73;;;;;;;3.44;100.00;102501.13;5168172;28;20021;-61
2022/01/27 06:48:48;;;;;;;30.27;26.05;;;;;;;3.80;100.00;102546.97;5169969;28;20026;-61
2022/01/27 06:51:18;;;;;;;32.80;29.20;;;;;;;3.84;100.00;102544.81;5169713;28;20540;-61
2022/01/27 06:53:49;;;;;;;30.92;27.88;;;;;;;3.84;100.00;102542.97;5169753;28;20033;-61
2022/01/27 06:56:19;;;;;;;33.47;27.75;;;;;;;3.86;100.00;102540.13;5170030;28;20017;-60
2022/01/27 06:58:50;;;;;;;30.48;27.20;;;;;;;3.83;100.00;102516.41;5169902;28;20040;-61
2022/01/27 07:01:20;;;;;;;36.15;31.10;;;;;;;3.87;100.00;102518.56;5169785;28;20026;-61
2022/01/27 07:03:51;;;;;;;28.42;25.42;;;;;;;3.86;100.00;102532.94;5186937;28;20056;-61
2022/01/27 07:06:21;;;;;;;38.72;31.20;;;;;;;3.78;100.00;102500.06;5169890;28;20025;-61
2022/01/27 07:08:52;;;;;;;34.45;30.67;;;;;;;3.88;100.00;102514.91;5165349;28;20482;-60
2022/01/27 07:11:22;;;;;;;28.10;24.52;;;;;;;3.91;100.00;102525.25;5168734;28;20030;-61
2022/01/27 07:13:53;;;;;;;34.55;28.33;;;;;;;3.90;100.00;102512.88;5168821;28;20493;-61
2022/01/27 07:16:23;;;;;;;30.20;27.50;;;;;;;3.95;100.00;102521.22;5186711;28;20029;-60
2022/01/27 07:18:53;;;;;;;32.90;28.10;;;;;;;3.99;100.00;102511.03;5169055;28;20766;-61
2022/01/27 07:21:24;;;;;;;31.45;28.60;;;;;;;4.01;100.00;102517.88;5168802;28;20018;-61
2022/01/27 07:23:54;;;;;;;39.10;32.30;;;;;;;3.93;100.00;102498.34;5168604;28;20081;-61
2022/01/27 07:26:26;;;;;;;30.98;24.85;;;;;;;4.05;100.00;102516.50;5168914;28;20037;-59
2022/01/27 07:28:57;;;;;;;33.15;28.98;;;;;;;4.08;100.00;102520.66;5168798;28;20030;-61
2022/01/27 07:31:27;;;;;;;43.17;31.45;;;;;;;4.03;100.00;102510.53;5168747;28;20026;-61
2022/01/27 07:33:58;;;;;;;34.13;30.42;;;;;;;4.13;100.00;102526.34;5168605;28;20036;-60
2022/01/27 07:36:31;;;;;;;31.98;28.83;;;;;;;4.13;100.00;102522.84;5168484;28;20033;-61
2022/01/27 07:39:02;;;;;;;33.95;27.80;;;;;;;4.19;100.00;102532.84;5168942;28;20057;-60
2022/01/27 07:41:32;;;;;;;37.03;28.77;;;;;;;4.22;100.00;102535.16;5168538;28;20024;-60
2022/01/27 07:44:03;;;;;;;43.38;30.58;;;;;;;4.25;100.00;102524.97;5186279;28;20030;-61
2022/01/27 07:46:33;;;;;;;35.65;29.13;;;;;;;4.28;100.00;102534.50;5168757;28;20128;-61
2022/01/27 07:49:04;;;;;;;39.45;27.95;;;;;;;4.29;100.00;102528.97;5165459;28;20030;-61
2022/01/27 07:51:35;;;;;;;31.65;25.10;;;;;;;4.34;100.00;102536.44;5167783;28;20021;-61
2022/01/27 07:54:05;;;;;;;30.17;26.88;;;;;;;4.37;100.00;102528.91;5168091;28;20038;-61
2022/01/27 07:56:36;;;;;;;35.92;28.55;;;;;;;4.27;100.00;102509.59;5168450;28;20055;-61
2022/01/27 07:59:06;;;;;;;35.30;27.83;;;;;;;4.26;100.00;102501.72;5168300;28;20052;-60
2022/01/27 08:01:37;;;;;;;30.20;26.77;;;;;;;4.45;100.00;102538.75;5167962;28;20032;-61
2022/01/27 08:04:07;;;;;;;32.70;29.10;;;;;;;4.49;100.00;102547.25;5167628;28;20025;-61
2022/01/27 08:06:38;;;;;;;40.33;27.42;;;;;;;4.49;100.00;102550.75;5168105;28;20493;-61
2022/01/27 08:09:09;;;;;;;30.70;27.20;;;;;;;4.35;100.00;102527.41;5167817;28;20546;-62
2022/01/27 08:11:39;;;;;;;40.70;27.52;;;;;;;4.58;100.00;102555.06;5167839;28;20099;-60
2022/01/27 08:14:10;;;;;;;29.15;24.35;;;;;;;4.57;100.00;102558.75;5167660;28;20030;-61
2022/01/27 08:16:41;;;;;;;30.15;26.17;;;;;;;4.36;100.00;102508.50;5168049;28;20456;-62
2022/01/27 08:19:11;;;;;;;30.08;27.05;;;;;;;4.70;100.00;102553.66;5166908;28;20029;-62
2022/01/27 08:21:42;;;;;;;32.35;29.02;;;;;;;4.59;100.00;102518.44;5167292;28;20026;-60
2022/01/27 08:24:14;;;;;;;27.33;24.20;;;;;;;4.81;100.00;102538.22;5167716;28;20092;-61
2022/01/27 08:26:47;;;;;;;31.23;27.88;;;;;;;4.84;100.00;102544.06;5167844;28;20477;-63
2022/01/27 08:29:29;;;;;;;29.10;25.88;;;;;;;4.88;100.00;102536.50;5167796;28;20516;-62
2022/01/27 08:32:02;;;;;;;30.50;25.00;;;;;;;4.88;100.00;102537.34;5167589;28;20034;-63
2022/01/27 08:34:41;;;;;;;35.22;28.98;;;;;;;4.91;100.00;102544.19;5167195;28;20034;-63
2022/01/27 08:37:17;;;;;;;31.13;28.23;;;;;;;4.87;100.00;102533.00;5167712;28;20078;-63
2022/01/27 08:39:48;;;;;;;34.33;30.02;;;;;;;4.86;100.00;102535.84;5167750;28;20022;-63
2022/01/27 08:42:18;;;;;;;35.63;28.95;;;;;;;4.72;100.00;102513.34;5181668;22;20041;-61
2022/01/27 08:51:41;;;;;;;39.67;28.52;;;;;;;4.74;100.00;102504.13;5612771;23;20056;-79
2022/01/27 08:54:12;;;;;;;32.88;28.00;;;;;;;4.92;100.00;102535.94;5211891;28;20025;-81
2022/01/27 08:56:42;;;;;;;36.58;29.00;;;;;;;4.69;100.00;102508.34;5212364;28;20085;-79
2022/01/27 08:59:16;;;;;;;36.58;29.58;;;;;;;4.54;100.00;102472.66;5212868;28;20029;-82
2022/01/27 09:05:13;;;;;;;44.97;30.70;;;;;;;4.92;100.00;102551.19;5191545;28;20058;-82
2022/01/27 09:07:44;;;;;;;32.78;29.65;;;;;;;4.45;100.00;102476.38;5191821;28;20025;-81
2022/01/27 09:10:15;;;;;;;34.92;31.35;;;;;;;4.87;100.00;102548.22;5192250;28;20026;-78
2022/01/27 09:12:46;;;;;;;41.53;35.13;;;;;;;4.86;100.00;102541.19;5191193;28;20037;-83
2022/01/27 09:15:16;;;;;;;39.08;34.83;;;;;;;4.84;100.00;102552.09;5193864;28;20030;-82
2022/01/27 09:17:47;;;;;;;34.50;30.80;;;;;;;4.60;100.00;102504.91;5193640;28;20030;-80
2022/01/27 09:23:44;;;;;;;39.75;34.10;;;;;;;4.71;100.00;102517.03;5207485;28;20392;-82
2022/01/27 09:27:01;;;;;;;36.45;32.40;;;;;;;4.78;100.00;102534.06;5195018;28;20030;-83
2022/01/27 09:29:05;;;;;;;47.05;35.10;;;;;;;4.85;100.00;102547.56;5178917;28;20034;-84
2022/01/27 09:31:36;;;;;;;46.15;33.83;;;;;;;4.85;100.00;102539.53;5194485;28;20101;-80
2022/01/27 09:34:06;;;;;;;36.30;30.75;;;;;;;4.79;100.00;102529.53;5192590;28;20049;-83
2022/01/27 09:36:37;;;;;;;36.42;31.45;;;;;;;4.71;100.00;102517.84;5193583;28;20026;-83
2022/01/27 09:39:07;;;;;;;38.25;33.53;;;;;;;4.94;100.00;102543.81;5183197;28;20057;-83
2022/01/27 09:41:39;;;;;;;35.58;31.90;;;;;;;4.97;100.00;102544.28;5212891;28;20071;-84
2022/01/27 09:44:12;;;;;;;41.25;32.45;;;;;;;4.98;100.00;102550.47;5212870;28;20033;-82
2022/01/27 09:46:45;;;;;;;37.67;33.90;;;;;;;4.98;100.00;102547.78;5214026;28;20021;-81
2022/01/27 09:49:19;;;;;;;35.05;31.45;;;;;;;4.83;100.00;102520.13;5213323;28;20052;-83
2022/01/27 09:51:49;;;;;;;38.75;33.25;;;;;;;4.94;100.00;102522.38;5213346;28;20108;-83
2022/01/27 09:54:19;;;;;;;36.40;33.15;;;;;;;5.09;100.00;102544.72;5212911;28;20072;-81
2022/01/27 09:56:52;;;;;;;38.90;34.95;;;;;;;5.10;100.00;102554.41;5196156;28;20026;-83
2022/01/27 09:59:23;;;;;;;36.28;32.25;;;;;;;5.18;100.00;102549.00;5213683;28;20031;-83
2022/01/27 10:02:00;;;;;;;39.20;35.20;;;;;;;5.23;100.00;102548.44;5213273;28;20108;-80
2022/01/27 10:04:48;;;;;;;36.60;32.92;;;;;;;5.21;100.00;102540.59;5197427;28;20032;-81
2022/01/27 10:07:22;;;;;;;38.00;31.30;;;;;;;5.25;100.00;102546.41;5213127;28;20487;-82
2022/01/27 10:10:09;;;;;;;34.40;31.10;;;;;;;5.15;100.00;102537.81;5213201;28;20391;-83
2022/01/27 10:12:46;;;;;;;42.42;32.80;;;;;;;5.06;100.00;102527.16;5216455;28;20107;-80
2022/01/27 10:15:20;;;;;;;36.03;32.75;;;;;;;5.28;100.00;102546.91;5199142;28;20029;-81
2022/01/27 10:18:08;;;;;;;37.45;32.28;;;;;;;5.35;100.00;102553.22;5220012;28;20471;-82
2022/01/27 10:20:48;;;;;;;38.67;31.73;;;;;;;5.34;100.00;102550.72;5228219;28;20029;-78
2022/01/27 10:23:24;;;;;;;38.40;33.22;;;;;;;5.18;100.00;102535.63;5225750;28;20052;-80
2022/01/27 10:26:04;;;;;;;33.00;29.65;;;;;;;5.46;100.00;102551.13;5219020;28;20057;-78
2022/01/27 10:31:10;;;;;;;36.03;29.40;;;;;;;5.49;100.00;102554.25;5216966;28;20030;-80
2022/01/27 10:33:45;;;;;;;34.78;31.13;;;;;;;5.38;100.00;102546.66;5216732;28;20021;-83
2022/01/27 10:36:19;;;;;;;34.97;28.25;;;;;;;5.18;100.00;102514.19;5216682;28;20510;-79
2022/01/27 10:39:15;;;;;;;36.42;31.73;;;;;;;5.42;100.00;102542.63;5199036;28;20091;-83
2022/01/27 10:41:56;;;;;;;39.00;33.50;;;;;;;5.49;100.00;102546.22;5191836;28;20052;-79
2022/01/27 10:44:37;;;;;;;29.73;27.00;;;;;;;5.46;100.00;102537.72;5216933;28;20483;-82
2022/01/27 10:47:17;;;;;;;38.22;29.90;;;;;;;5.48;100.00;102560.66;5198586;28;20025;-84
2022/01/27 10:49:58;;;;;;;29.80;25.83;;;;;;;5.20;100.00;102505.97;5215488;28;20025;-81
2022/01/27 10:52:39;;;;;;;34.75;28.25;;;;;;;5.48;100.00;102549.09;5199847;28;20025;-82
2022/01/27 10:55:12;;;;;;;35.25;30.75;;;;;;;5.41;100.00;102552.50;5216786;28;20075;-81
2022/01/27 10:57:49;;;;;;;31.60;28.65;;;;;;;5.32;100.00;102525.94;5215737;28;20025;-78
2022/01/27 11:00:22;;;;;;;33.40;29.42;;;;;;;5.37;100.00;102529.75;5216153;28;20215;-83
2022/01/27 11:03:01;;;;;;;30.80;27.58;;;;;;;5.47;100.00;102531.38;5216856;28;20297;-79
2022/01/27 11:06:05;;;;;;;33.58;29.67;;;;;;;5.53;100.00;102546.69;5198374;28;20021;-81
2022/01/27 11:08:37;;;;;;;32.85;29.38;;;;;;;5.56;100.00;102540.97;5216884;28;20103;-83
2022/01/27 11:11:53;;;;;;;27.05;24.25;;;;;;;5.56;100.00;102533.75;5216812;28;20100;-81
2022/01/27 11:14:25;;;;;;;30.00;26.95;;;;;;;4.75;100.00;102385.38;5215501;28;20037;-80
2022/01/27 11:16:58;;;;;;;28.95;24.67;;;;;;;5.15;100.00;102450.28;5215795;28;20035;-82
2022/01/27 11:27:28;;;;;;;29.58;26.50;;;;;;;5.64;100.00;102527.50;5215747;28;20044;-84
2022/01/27 11:30:13;;;;;;;29.13;26.17;;;;;;;5.73;100.00;102534.47;5214965;28;20087;-83
2022/01/27 11:33:14;;;;;;;27.15;24.33;;;;;;;5.77;100.00;102530.41;5215451;28;20026;-83
2022/01/27 11:35:44;;;;;;;27.55;24.98;;;;;;;5.76;100.00;102531.41;5188972;28;20045;-83
2022/01/27 11:38:24;;;;;;;25.58;21.77;;;;;;;5.62;100.00;102490.16;5215095;28;20031;-79
2022/01/27 11:40:54;;;;;;;27.38;25.08;;;;;;;5.86;100.00;102520.41;5197542;28;20025;-84
2022/01/27 11:43:33;;;;;;;25.58;23.25;;;;;;;5.75;100.00;102495.72;5214811;28;20088;-79
2022/01/27 11:46:26;;;;;;;26.30;23.88;;;;;;;5.85;100.00;102521.41;5211651;28;20099;-83
2022/01/27 11:48:57;;;;;;;24.88;22.85;;;;;;;5.66;100.00;102453.09;5215367;28;20025;-82
2022/01/27 11:51:27;;;;;;;22.75;20.67;;;;;;;5.44;100.00;102401.28;5219501;28;20025;-79
2022/01/27 11:54:00;;;;;;;23.88;21.23;;;;;;;6.16;100.00;102513.22;5208303;28;20529;-79
2022/01/27 11:56:36;;;;;;;21.98;19.38;;;;;;;6.20;100.00;102499.25;5225820;28;20083;-80
2022/01/27 11:59:08;;;;;;;20.08;18.48;;;;;;;6.16;100.00;102492.59;5225177;28;20033;-81
2022/01/27 12:01:39;;;;;;;21.00;18.98;;;;;;;6.33;100.00;102498.59;5225461;28;20013;-81
2022/01/27 12:04:13;;;;;;;29.08;19.42;;;;;;;6.37;100.00;102478.38;5225959;28;20080;-80
2022/01/27 12:06:49;;;;;;;25.17;18.88;;;;;;;6.48;100.00;102485.97;5225982;28;20021;-78
2022/01/27 12:09:19;;;;;;;19.23;17.70;;;;;;;6.50;100.00;102497.34;5209211;28;20029;-80
2022/01/27 12:12:01;;;;;;;19.88;18.10;;;;;;;6.53;100.00;102504.19;5227085;28;20075;-81
2022/01/27 12:14:35;;;;;;;19.85;17.90;;;;;;;6.50;100.00;102499.19;5233557;28;20019;-80
2022/01/27 12:17:08;;;;;;;19.08;17.23;;;;;;;6.51;100.00;102498.19;5247146;28;20116;-80
2022/01/27 12:19:59;;;;;;;18.77;17.08;;;;;;;6.52;100.00;102495.31;5245941;28;20084;-80
2022/01/27 12:22:52;;;;;;;19.60;18.10;;;;;;;6.57;100.00;102492.88;5245151;28;20013;-79
2022/01/27 12:25:22;;;;;;;21.77;18.25;;;;;;;6.53;100.00;102475.50;5207597;28;20026;-84
2022/01/27 12:27:59;;;;;;;16.45;15.15;;;;;;;6.57;100.00;102484.84;5218499;28;20033;-81
2022/01/27 12:30:29;;;;;;;17.00;15.30;;;;;;;6.45;100.00;102478.28;5216700;28;20049;-79
2022/01/27 12:33:00;;;;;;;16.15;14.85;;;;;;;6.58;100.00;102485.66;5199561;28;20021;-79
2022/01/27 12:35:31;;;;;;;18.90;16.67;;;;;;;6.49;100.00;102463.47;5217002;28;20064;-81
2022/01/27 12:38:01;;;;;;;17.15;15.73;;;;;;;6.52;100.00;102457.72;5200807;28;20029;-82
2022/01/27 12:40:33;;;;;;;16.65;15.13;;;;;;;6.67;100.00;102479.97;5216511;28;20028;-81
2022/01/27 12:43:54;;;;;;;16.27;15.00;;;;;;;6.68;100.00;102480.81;5219733;28;20029;-81